sensor_id;sensor_type;location;lat;lon;timestamp;P1;durP1;ratioP1;P2;durP2;ratioP2
990;SDS011;484;48.128;11.602;2023-04-16T00:02:02;1.37;;;1.27;;
990;SDS011;484;48.128;11.602;2023-04-16T00:04:47;1.50;;;1.40;;
990;SDS011;484;48.128;11.602;2023-04-16T00:07:33;2.23;;;1.80;;
990;SDS011;484;48.128;11.602;2023-04-16T00:10:19;2.87;;;2.00;;
990;SDS011;484;48.128;11.602;2023-04-16T00:13:05;1.77;;;1.67;;
990;SDS011;484;48.128;11.602;2023-04-16T00:15:50;2.27;;;2.07;;
990;SDS011;484;48.128;11.602;2023-04-16T00:18:36;2.60;;;2.40;;
990;SDS011;484;48.128;11.602;2023-04-16T00:21:22;1.70;;;1.60;;
990;SDS011;484;48.128;11.602;2023-04-16T00:24:07;1.97;;;1.87;;
990;SDS011;484;48.128;11.602;2023-04-16T00:26:54;1.80;;;1.67;;
990;SDS011;484;48.128;11.602;2023-04-16T00:29:40;2.47;;;2.27;;
990;SDS011;484;48.128;11.602;2023-04-16T00:32:25;3.67;;;3.37;;
990;SDS011;484;48.128;11.602;2023-04-16T00:35:10;1.80;;;1.70;;
990;SDS011;484;48.128;11.602;2023-04-16T00:37:56;1.77;;;1.67;;
990;SDS011;484;48.128;11.602;2023-04-16T00:40:41;2.87;;;2.63;;
990;SDS011;484;48.128;11.602;2023-04-16T00:43:28;2.30;;;2.10;;
990;SDS011;484;48.128;11.602;2023-04-16T00:46:14;3.73;;;1.90;;
990;SDS011;484;48.128;11.602;2023-04-16T00:49:00;3.23;;;2.20;;
990;SDS011;484;48.128;11.602;2023-04-16T00:51:46;2.20;;;2.00;;
990;SDS011;484;48.128;11.602;2023-04-16T00:54:32;2.83;;;2.63;;
990;SDS011;484;48.128;11.602;2023-04-16T00:57:17;2.37;;;2.17;;
990;SDS011;484;48.128;11.602;2023-04-16T01:00:08;2.50;;;2.30;;
990;SDS011;484;48.128;11.602;2023-04-16T01:02:54;2.37;;;2.17;;
990;SDS011;484;48.128;11.602;2023-04-16T01:05:40;2.83;;;2.20;;
990;SDS011;484;48.128;11.602;2023-04-16T01:08:26;2.47;;;2.27;;
990;SDS011;484;48.128;11.602;2023-04-16T01:11:12;2.40;;;2.30;;
990;SDS011;484;48.128;11.602;2023-04-16T01:13:58;2.07;;;1.97;;
990;SDS011;484;48.128;11.602;2023-04-16T01:16:45;3.53;;;3.33;;
990;SDS011;484;48.128;11.602;2023-04-16T01:19:30;3.37;;;2.90;;
990;SDS011;484;48.128;11.602;2023-04-16T01:22:20;2.63;;;2.43;;
990;SDS011;484;48.128;11.602;2023-04-16T01:25:05;2.53;;;2.33;;
990;SDS011;484;48.128;11.602;2023-04-16T01:27:50;2.33;;;2.10;;
990;SDS011;484;48.128;11.602;2023-04-16T01:30:37;2.83;;;2.00;;
990;SDS011;484;48.128;11.602;2023-04-16T01:33:23;3.50;;;2.40;;
990;SDS011;484;48.128;11.602;2023-04-16T01:36:08;2.83;;;2.37;;
990;SDS011;484;48.128;11.602;2023-04-16T01:38:55;2.47;;;2.33;;
990;SDS011;484;48.128;11.602;2023-04-16T01:41:40;2.27;;;2.13;;
990;SDS011;484;48.128;11.602;2023-04-16T01:44:26;2.63;;;2.43;;
990;SDS011;484;48.128;11.602;2023-04-16T01:47:11;5.07;;;2.67;;
990;SDS011;484;48.128;11.602;2023-04-16T01:49:56;2.17;;;2.07;;
990;SDS011;484;48.128;11.602;2023-04-16T01:52:43;4.30;;;2.23;;
990;SDS011;484;48.128;11.602;2023-04-16T01:55:30;3.73;;;2.17;;
990;SDS011;484;48.128;11.602;2023-04-16T01:58:15;2.30;;;1.90;;
990;SDS011;484;48.128;11.602;2023-04-16T02:01:01;1.93;;;1.83;;
990;SDS011;484;48.128;11.602;2023-04-16T02:03:47;2.83;;;2.60;;
990;SDS011;484;48.128;11.602;2023-04-16T02:06:32;1.77;;;1.60;;
990;SDS011;484;48.128;11.602;2023-04-16T02:09:18;2.70;;;2.53;;
990;SDS011;484;48.128;11.602;2023-04-16T02:12:05;2.00;;;1.60;;
990;SDS011;484;48.128;11.602;2023-04-16T02:14:50;3.17;;;2.97;;
990;SDS011;484;48.128;11.602;2023-04-16T02:17:36;2.87;;;2.27;;
990;SDS011;484;48.128;11.602;2023-04-16T02:20:21;4.53;;;4.17;;
990;SDS011;484;48.128;11.602;2023-04-16T02:23:07;3.97;;;3.13;;
990;SDS011;484;48.128;11.602;2023-04-16T02:25:52;2.93;;;2.70;;
990;SDS011;484;48.128;11.602;2023-04-16T02:28:39;1.80;;;1.70;;
990;SDS011;484;48.128;11.602;2023-04-16T02:31:24;2.27;;;2.10;;
990;SDS011;484;48.128;11.602;2023-04-16T02:34:11;4.07;;;3.67;;
990;SDS011;484;48.128;11.602;2023-04-16T02:36:56;4.30;;;2.90;;
990;SDS011;484;48.128;11.602;2023-04-16T02:39:42;2.50;;;2.10;;
990;SDS011;484;48.128;11.602;2023-04-16T02:42:27;3.80;;;3.50;;
990;SDS011;484;48.128;11.602;2023-04-16T02:45:14;3.20;;;2.87;;
990;SDS011;484;48.128;11.602;2023-04-16T02:47:59;2.40;;;2.20;;
990;SDS011;484;48.128;11.602;2023-04-16T02:50:45;2.53;;;2.33;;
990;SDS011;484;48.128;11.602;2023-04-16T02:53:30;3.07;;;2.87;;
990;SDS011;484;48.128;11.602;2023-04-16T02:56:16;3.10;;;2.90;;
990;SDS011;484;48.128;11.602;2023-04-16T02:59:01;2.10;;;2.00;;
990;SDS011;484;48.128;11.602;2023-04-16T03:01:48;10.23;;;3.83;;
990;SDS011;484;48.128;11.602;2023-04-16T03:04:33;2.67;;;2.30;;
990;SDS011;484;48.128;11.602;2023-04-16T03:07:19;2.60;;;2.40;;
990;SDS011;484;48.128;11.602;2023-04-16T03:10:05;1.90;;;1.80;;
990;SDS011;484;48.128;11.602;2023-04-16T03:12:51;2.00;;;1.90;;
990;SDS011;484;48.128;11.602;2023-04-16T03:15:37;2.10;;;2.00;;
990;SDS011;484;48.128;11.602;2023-04-16T03:18:23;2.77;;;2.63;;
990;SDS011;484;48.128;11.602;2023-04-16T03:21:09;2.10;;;1.90;;
990;SDS011;484;48.128;11.602;2023-04-16T03:23:54;3.03;;;2.37;;
990;SDS011;484;48.128;11.602;2023-04-16T03:26:40;6.30;;;2.00;;
990;SDS011;484;48.128;11.602;2023-04-16T03:29:25;3.20;;;2.23;;
990;SDS011;484;48.128;11.602;2023-04-16T03:32:10;2.13;;;1.93;;
990;SDS011;484;48.128;11.602;2023-04-16T03:34:57;1.83;;;1.73;;
990;SDS011;484;48.128;11.602;2023-04-16T03:37:43;1.90;;;1.70;;
990;SDS011;484;48.128;11.602;2023-04-16T03:40:28;1.97;;;1.87;;
990;SDS011;484;48.128;11.602;2023-04-16T03:43:13;3.70;;;3.40;;
990;SDS011;484;48.128;11.602;2023-04-16T03:45:59;3.70;;;3.40;;
990;SDS011;484;48.128;11.602;2023-04-16T03:48:44;2.40;;;2.27;;
990;SDS011;484;48.128;11.602;2023-04-16T03:51:31;2.00;;;1.90;;
990;SDS011;484;48.128;11.602;2023-04-16T03:54:16;1.70;;;1.60;;
990;SDS011;484;48.128;11.602;2023-04-16T03:57:02;3.47;;;2.33;;
990;SDS011;484;48.128;11.602;2023-04-16T03:59:47;1.70;;;1.60;;
990;SDS011;484;48.128;11.602;2023-04-16T04:02:33;1.90;;;1.70;;
990;SDS011;484;48.128;11.602;2023-04-16T04:05:18;2.70;;;2.50;;
990;SDS011;484;48.128;11.602;2023-04-16T04:08:05;4.10;;;2.30;;
990;SDS011;484;48.128;11.602;2023-04-16T04:10:51;1.70;;;1.60;;
990;SDS011;484;48.128;11.602;2023-04-16T04:13:37;2.37;;;2.20;;
990;SDS011;484;48.128;11.602;2023-04-16T04:16:22;1.87;;;1.53;;
990;SDS011;484;48.128;11.602;2023-04-16T04:19:07;1.60;;;1.50;;
990;SDS011;484;48.128;11.602;2023-04-16T04:21:53;2.00;;;1.90;;
990;SDS011;484;48.128;11.602;2023-04-16T04:24:39;4.33;;;3.93;;
990;SDS011;484;48.128;11.602;2023-04-16T04:27:25;2.73;;;2.50;;
990;SDS011;484;48.128;11.602;2023-04-16T04:30:10;1.80;;;1.70;;
990;SDS011;484;48.128;11.602;2023-04-16T04:32:56;4.73;;;2.63;;
990;SDS011;484;48.128;11.602;2023-04-16T04:35:41;1.47;;;1.37;;
990;SDS011;484;48.128;11.602;2023-04-16T04:38:26;1.63;;;1.53;;
990;SDS011;484;48.128;11.602;2023-04-16T04:41:14;3.67;;;2.27;;
990;SDS011;484;48.128;11.602;2023-04-16T04:43:59;2.00;;;1.90;;
990;SDS011;484;48.128;11.602;2023-04-16T04:46:44;1.97;;;1.87;;
990;SDS011;484;48.128;11.602;2023-04-16T04:49:30;2.20;;;2.10;;
990;SDS011;484;48.128;11.602;2023-04-16T04:52:15;2.23;;;2.10;;
990;SDS011;484;48.128;11.602;2023-04-16T04:55:03;1.83;;;1.73;;
990;SDS011;484;48.128;11.602;2023-04-16T04:57:50;2.17;;;2.03;;
990;SDS011;484;48.128;11.602;2023-04-16T05:00:35;2.13;;;2.03;;
990;SDS011;484;48.128;11.602;2023-04-16T05:03:21;2.20;;;1.97;;
990;SDS011;484;48.128;11.602;2023-04-16T05:06:06;2.07;;;1.87;;
990;SDS011;484;48.128;11.602;2023-04-16T05:08:52;2.23;;;2.10;;
990;SDS011;484;48.128;11.602;2023-04-16T05:11:37;2.70;;;2.50;;
990;SDS011;484;48.128;11.602;2023-04-16T05:14:23;2.93;;;2.73;;
990;SDS011;484;48.128;11.602;2023-04-16T05:17:09;2.63;;;2.37;;
990;SDS011;484;48.128;11.602;2023-04-16T05:19:54;1.83;;;1.73;;
990;SDS011;484;48.128;11.602;2023-04-16T05:22:40;3.27;;;2.97;;
990;SDS011;484;48.128;11.602;2023-04-16T05:25:25;2.47;;;2.27;;
990;SDS011;484;48.128;11.602;2023-04-16T05:28:11;3.10;;;2.80;;
990;SDS011;484;48.128;11.602;2023-04-16T05:30:58;1.97;;;1.87;;
990;SDS011;484;48.128;11.602;2023-04-16T05:33:43;1.73;;;1.63;;
990;SDS011;484;48.128;11.602;2023-04-16T05:36:28;1.33;;;1.23;;
990;SDS011;484;48.128;11.602;2023-04-16T05:39:15;3.50;;;2.30;;
990;SDS011;484;48.128;11.602;2023-04-16T05:42:01;1.47;;;1.37;;
990;SDS011;484;48.128;11.602;2023-04-16T05:44:46;1.67;;;1.57;;
990;SDS011;484;48.128;11.602;2023-04-16T05:47:33;1.40;;;1.30;;
990;SDS011;484;48.128;11.602;2023-04-16T05:50:18;1.77;;;1.60;;
990;SDS011;484;48.128;11.602;2023-04-16T05:53:04;3.77;;;2.60;;
990;SDS011;484;48.128;11.602;2023-04-16T05:55:50;3.27;;;1.73;;
990;SDS011;484;48.128;11.602;2023-04-16T05:58:36;1.30;;;1.20;;
990;SDS011;484;48.128;11.602;2023-04-16T06:01:21;1.83;;;1.73;;
990;SDS011;484;48.128;11.602;2023-04-16T06:04:08;1.10;;;1.10;;
990;SDS011;484;48.128;11.602;2023-04-16T06:06:53;1.60;;;1.50;;
990;SDS011;484;48.128;11.602;2023-04-16T06:09:38;1.00;;;1.00;;
990;SDS011;484;48.128;11.602;2023-04-16T06:12:24;1.03;;;1.03;;
990;SDS011;484;48.128;11.602;2023-04-16T06:15:09;1.20;;;0.90;;
990;SDS011;484;48.128;11.602;2023-04-16T06:17:57;1.00;;;1.00;;
990;SDS011;484;48.128;11.602;2023-04-16T06:20:44;1.23;;;0.97;;
990;SDS011;484;48.128;11.602;2023-04-16T06:23:29;0.80;;;0.80;;
990;SDS011;484;48.128;11.602;2023-04-16T06:26:15;1.53;;;1.43;;
990;SDS011;484;48.128;11.602;2023-04-16T06:29:01;0.90;;;0.90;;
990;SDS011;484;48.128;11.602;2023-04-16T06:31:46;0.93;;;0.93;;
990;SDS011;484;48.128;11.602;2023-04-16T06:34:32;0.90;;;0.90;;
990;SDS011;484;48.128;11.602;2023-04-16T06:37:18;0.80;;;0.80;;
990;SDS011;484;48.128;11.602;2023-04-16T06:40:04;0.70;;;0.70;;
990;SDS011;484;48.128;11.602;2023-04-16T06:42:50;1.03;;;1.03;;
990;SDS011;484;48.128;11.602;2023-04-16T06:45:36;0.73;;;0.73;;
990;SDS011;484;48.128;11.602;2023-04-16T06:48:21;1.20;;;0.80;;
990;SDS011;484;48.128;11.602;2023-04-16T06:51:06;0.90;;;0.90;;
990;SDS011;484;48.128;11.602;2023-04-16T06:53:53;1.10;;;0.80;;
990;SDS011;484;48.128;11.602;2023-04-16T06:56:38;0.93;;;0.93;;
990;SDS011;484;48.128;11.602;2023-04-16T06:59:23;0.80;;;0.80;;
990;SDS011;484;48.128;11.602;2023-04-16T07:02:09;1.13;;;1.00;;
990;SDS011;484;48.128;11.602;2023-04-16T07:04:54;0.90;;;0.90;;
990;SDS011;484;48.128;11.602;2023-04-16T07:07:40;0.80;;;0.80;;
990;SDS011;484;48.128;11.602;2023-04-16T07:10:26;0.90;;;0.77;;
990;SDS011;484;48.128;11.602;2023-04-16T07:13:12;0.80;;;0.70;;
990;SDS011;484;48.128;11.602;2023-04-16T07:15:57;0.70;;;0.70;;
990;SDS011;484;48.128;11.602;2023-04-16T07:18:43;0.70;;;0.70;;
990;SDS011;484;48.128;11.602;2023-04-16T07:21:28;0.70;;;0.70;;
990;SDS011;484;48.128;11.602;2023-04-16T07:24:14;0.53;;;0.53;;
990;SDS011;484;48.128;11.602;2023-04-16T07:27:00;0.70;;;0.70;;
990;SDS011;484;48.128;11.602;2023-04-16T07:29:46;0.70;;;0.70;;
990;SDS011;484;48.128;11.602;2023-04-16T07:32:33;0.87;;;0.83;;
990;SDS011;484;48.128;11.602;2023-04-16T07:35:18;2.17;;;1.00;;
990;SDS011;484;48.128;11.602;2023-04-16T07:38:04;0.50;;;0.50;;
990;SDS011;484;48.128;11.602;2023-04-16T07:40:49;0.90;;;0.90;;
990;SDS011;484;48.128;11.602;2023-04-16T07:43:36;0.50;;;0.50;;
990;SDS011;484;48.128;11.602;2023-04-16T07:46:22;0.60;;;0.60;;
990;SDS011;484;48.128;11.602;2023-04-16T07:49:07;0.60;;;0.60;;
990;SDS011;484;48.128;11.602;2023-04-16T07:51:52;0.50;;;0.50;;
990;SDS011;484;48.128;11.602;2023-04-16T07:54:38;0.60;;;0.60;;
990;SDS011;484;48.128;11.602;2023-04-16T07:57:23;0.80;;;0.80;;
990;SDS011;484;48.128;11.602;2023-04-16T08:00:11;0.60;;;0.60;;
990;SDS011;484;48.128;11.602;2023-04-16T08:02:56;0.57;;;0.57;;
990;SDS011;484;48.128;11.602;2023-04-16T08:05:42;0.70;;;0.50;;
990;SDS011;484;48.128;11.602;2023-04-16T08:08:27;0.60;;;0.50;;
990;SDS011;484;48.128;11.602;2023-04-16T08:11:13;0.70;;;0.70;;
990;SDS011;484;48.128;11.602;2023-04-16T08:13:58;1.17;;;0.60;;
990;SDS011;484;48.128;11.602;2023-04-16T08:16:45;0.80;;;0.77;;
990;SDS011;484;48.128;11.602;2023-04-16T08:19:30;0.53;;;0.53;;
990;SDS011;484;48.128;11.602;2023-04-16T08:22:16;1.10;;;1.00;;
990;SDS011;484;48.128;11.602;2023-04-16T08:25:02;0.80;;;0.60;;
990;SDS011;484;48.128;11.602;2023-04-16T08:27:47;0.60;;;0.60;;
990;SDS011;484;48.128;11.602;2023-04-16T08:30:32;0.67;;;0.67;;
990;SDS011;484;48.128;11.602;2023-04-16T08:33:19;1.00;;;0.80;;
990;SDS011;484;48.128;11.602;2023-04-16T08:36:05;0.50;;;0.50;;
990;SDS011;484;48.128;11.602;2023-04-16T08:38:51;1.40;;;1.30;;
990;SDS011;484;48.128;11.602;2023-04-16T08:41:37;0.80;;;0.70;;
990;SDS011;484;48.128;11.602;2023-04-16T08:44:25;1.23;;;0.90;;
990;SDS011;484;48.128;11.602;2023-04-16T08:47:11;0.60;;;0.60;;
990;SDS011;484;48.128;11.602;2023-04-16T08:49:58;0.60;;;0.60;;
990;SDS011;484;48.128;11.602;2023-04-16T08:52:49;1.47;;;1.20;;
990;SDS011;484;48.128;11.602;2023-04-16T08:55:35;0.77;;;0.70;;
990;SDS011;484;48.128;11.602;2023-04-16T08:58:22;1.20;;;0.70;;
990;SDS011;484;48.128;11.602;2023-04-16T09:01:08;0.80;;;0.80;;
990;SDS011;484;48.128;11.602;2023-04-16T09:03:53;0.80;;;0.70;;
990;SDS011;484;48.128;11.602;2023-04-16T09:06:40;0.60;;;0.60;;
990;SDS011;484;48.128;11.602;2023-04-16T09:09:26;0.93;;;0.83;;
990;SDS011;484;48.128;11.602;2023-04-16T09:12:12;1.07;;;1.00;;
990;SDS011;484;48.128;11.602;2023-04-16T09:14:57;0.70;;;0.70;;
990;SDS011;484;48.128;11.602;2023-04-16T09:17:45;0.60;;;0.60;;
990;SDS011;484;48.128;11.602;2023-04-16T09:20:30;0.93;;;0.60;;
990;SDS011;484;48.128;11.602;2023-04-16T09:23:17;0.60;;;0.60;;
990;SDS011;484;48.128;11.602;2023-04-16T09:26:03;0.60;;;0.60;;
990;SDS011;484;48.128;11.602;2023-04-16T09:28:49;0.70;;;0.70;;
990;SDS011;484;48.128;11.602;2023-04-16T09:31:35;0.83;;;0.70;;
990;SDS011;484;48.128;11.602;2023-04-16T09:34:20;1.27;;;1.00;;
990;SDS011;484;48.128;11.602;2023-04-16T09:37:14;0.60;;;0.60;;
990;SDS011;484;48.128;11.602;2023-04-16T09:40:02;0.60;;;0.60;;
990;SDS011;484;48.128;11.602;2023-04-16T09:42:48;0.70;;;0.70;;
990;SDS011;484;48.128;11.602;2023-04-16T09:45:39;0.70;;;0.70;;
990;SDS011;484;48.128;11.602;2023-04-16T09:48:32;0.70;;;0.70;;
990;SDS011;484;48.128;11.602;2023-04-16T09:51:18;1.00;;;0.67;;
990;SDS011;484;48.128;11.602;2023-04-16T09:54:04;0.87;;;0.87;;
990;SDS011;484;48.128;11.602;2023-04-16T09:56:50;0.60;;;0.60;;
990;SDS011;484;48.128;11.602;2023-04-16T09:59:40;0.70;;;0.70;;
990;SDS011;484;48.128;11.602;2023-04-16T10:02:25;0.80;;;0.80;;
990;SDS011;484;48.128;11.602;2023-04-16T10:05:13;1.63;;;0.70;;
990;SDS011;484;48.128;11.602;2023-04-16T10:08:01;0.60;;;0.60;;
990;SDS011;484;48.128;11.602;2023-04-16T10:10:47;1.00;;;1.00;;
990;SDS011;484;48.128;11.602;2023-04-16T10:13:34;0.60;;;0.60;;
990;SDS011;484;48.128;11.602;2023-04-16T10:16:19;0.60;;;0.60;;
990;SDS011;484;48.128;11.602;2023-04-16T10:19:06;0.70;;;0.70;;
990;SDS011;484;48.128;11.602;2023-04-16T10:21:51;0.60;;;0.60;;
990;SDS011;484;48.128;11.602;2023-04-16T10:24:37;1.80;;;0.70;;
990;SDS011;484;48.128;11.602;2023-04-16T10:27:22;0.60;;;0.60;;
990;SDS011;484;48.128;11.602;2023-04-16T10:30:10;0.90;;;0.90;;
990;SDS011;484;48.128;11.602;2023-04-16T10:32:58;0.60;;;0.60;;
990;SDS011;484;48.128;11.602;2023-04-16T10:35:44;0.60;;;0.60;;
990;SDS011;484;48.128;11.602;2023-04-16T10:38:30;0.70;;;0.60;;
990;SDS011;484;48.128;11.602;2023-04-16T10:41:15;0.87;;;0.70;;
990;SDS011;484;48.128;11.602;2023-04-16T10:44:02;0.70;;;0.70;;
990;SDS011;484;48.128;11.602;2023-04-16T10:46:53;0.60;;;0.60;;
990;SDS011;484;48.128;11.602;2023-04-16T10:49:39;0.90;;;0.70;;
990;SDS011;484;48.128;11.602;2023-04-16T10:52:25;0.70;;;0.67;;
990;SDS011;484;48.128;11.602;2023-04-16T10:55:14;0.80;;;0.80;;
990;SDS011;484;48.128;11.602;2023-04-16T10:58:01;0.60;;;0.60;;
990;SDS011;484;48.128;11.602;2023-04-16T11:00:51;0.60;;;0.60;;
990;SDS011;484;48.128;11.602;2023-04-16T11:03:40;0.83;;;0.83;;
990;SDS011;484;48.128;11.602;2023-04-16T11:06:27;1.00;;;1.00;;
990;SDS011;484;48.128;11.602;2023-04-16T11:12:34;0.70;;;0.70;;
990;SDS011;484;48.128;11.602;2023-04-16T11:15:21;0.60;;;0.60;;
990;SDS011;484;48.128;11.602;2023-04-16T11:18:07;0.77;;;0.77;;
990;SDS011;484;48.128;11.602;2023-04-16T11:20:54;0.70;;;0.70;;
990;SDS011;484;48.128;11.602;2023-04-16T11:23:46;0.50;;;0.50;;
990;SDS011;484;48.128;11.602;2023-04-16T11:26:32;0.70;;;0.70;;
990;SDS011;484;48.128;11.602;2023-04-16T11:29:17;0.60;;;0.60;;
990;SDS011;484;48.128;11.602;2023-04-16T11:32:03;1.17;;;0.80;;
990;SDS011;484;48.128;11.602;2023-04-16T11:34:48;0.60;;;0.60;;
990;SDS011;484;48.128;11.602;2023-04-16T11:37:36;0.60;;;0.60;;
990;SDS011;484;48.128;11.602;2023-04-16T11:40:22;0.70;;;0.70;;
990;SDS011;484;48.128;11.602;2023-04-16T11:43:12;0.73;;;0.70;;
990;SDS011;484;48.128;11.602;2023-04-16T11:45:58;0.63;;;0.63;;
990;SDS011;484;48.128;11.602;2023-04-16T11:48:44;0.70;;;0.60;;
990;SDS011;484;48.128;11.602;2023-04-16T11:51:30;0.60;;;0.60;;
990;SDS011;484;48.128;11.602;2023-04-16T11:54:20;1.17;;;1.07;;
990;SDS011;484;48.128;11.602;2023-04-16T11:57:06;1.00;;;0.90;;
990;SDS011;484;48.128;11.602;2023-04-16T11:59:52;0.80;;;0.80;;
990;SDS011;484;48.128;11.602;2023-04-16T12:02:38;0.90;;;0.90;;
990;SDS011;484;48.128;11.602;2023-04-16T12:05:28;1.43;;;1.07;;
990;SDS011;484;48.128;11.602;2023-04-16T12:08:16;0.70;;;0.70;;
990;SDS011;484;48.128;11.602;2023-04-16T12:11:14;1.10;;;0.90;;
990;SDS011;484;48.128;11.602;2023-04-16T12:14:05;0.70;;;0.70;;
990;SDS011;484;48.128;11.602;2023-04-16T12:16:53;0.83;;;0.80;;
990;SDS011;484;48.128;11.602;2023-04-16T12:19:46;1.07;;;0.97;;
990;SDS011;484;48.128;11.602;2023-04-16T12:22:34;0.80;;;0.77;;
990;SDS011;484;48.128;11.602;2023-04-16T12:25:25;0.70;;;0.70;;
990;SDS011;484;48.128;11.602;2023-04-16T12:28:12;0.70;;;0.60;;
990;SDS011;484;48.128;11.602;2023-04-16T12:30:59;1.77;;;1.20;;
990;SDS011;484;48.128;11.602;2023-04-16T12:36:47;0.73;;;0.73;;
990;SDS011;484;48.128;11.602;2023-04-16T12:39:36;3.20;;;0.93;;
990;SDS011;484;48.128;11.602;2023-04-16T12:42:22;1.37;;;1.20;;
990;SDS011;484;48.128;11.602;2023-04-16T12:45:09;1.00;;;0.90;;
990;SDS011;484;48.128;11.602;2023-04-16T12:47:54;1.57;;;0.97;;
990;SDS011;484;48.128;11.602;2023-04-16T12:50:40;1.80;;;1.13;;
990;SDS011;484;48.128;11.602;2023-04-16T12:53:26;0.70;;;0.70;;
990;SDS011;484;48.128;11.602;2023-04-16T12:56:12;0.70;;;0.70;;
990;SDS011;484;48.128;11.602;2023-04-16T12:58:57;0.80;;;0.73;;
990;SDS011;484;48.128;11.602;2023-04-16T13:01:44;3.73;;;0.70;;
990;SDS011;484;48.128;11.602;2023-04-16T13:04:29;0.90;;;0.90;;
990;SDS011;484;48.128;11.602;2023-04-16T13:07:15;0.70;;;0.70;;
990;SDS011;484;48.128;11.602;2023-04-16T13:10:00;0.60;;;0.60;;
990;SDS011;484;48.128;11.602;2023-04-16T13:12:46;0.80;;;0.80;;
990;SDS011;484;48.128;11.602;2023-04-16T13:15:31;0.73;;;0.73;;
990;SDS011;484;48.128;11.602;2023-04-16T13:18:18;1.13;;;0.80;;
990;SDS011;484;48.128;11.602;2023-04-16T13:21:03;0.60;;;0.60;;
990;SDS011;484;48.128;11.602;2023-04-16T13:23:49;0.67;;;0.67;;
990;SDS011;484;48.128;11.602;2023-04-16T13:26:34;0.80;;;0.70;;
990;SDS011;484;48.128;11.602;2023-04-16T13:29:20;0.90;;;0.90;;
990;SDS011;484;48.128;11.602;2023-04-16T13:32:05;0.93;;;0.80;;
990;SDS011;484;48.128;11.602;2023-04-16T13:34:52;0.90;;;0.90;;
990;SDS011;484;48.128;11.602;2023-04-16T13:37:37;0.70;;;0.70;;
990;SDS011;484;48.128;11.602;2023-04-16T13:40:22;1.23;;;1.13;;
990;SDS011;484;48.128;11.602;2023-04-16T13:43:08;0.73;;;0.63;;
990;SDS011;484;48.128;11.602;2023-04-16T13:45:53;0.60;;;0.60;;
990;SDS011;484;48.128;11.602;2023-04-16T13:48:38;0.80;;;0.80;;
990;SDS011;484;48.128;11.602;2023-04-16T13:51:25;0.63;;;0.63;;
990;SDS011;484;48.128;11.602;2023-04-16T13:54:11;0.70;;;0.70;;
990;SDS011;484;48.128;11.602;2023-04-16T13:56:57;0.60;;;0.60;;
990;SDS011;484;48.128;11.602;2023-04-16T13:59:42;0.87;;;0.87;;
990;SDS011;484;48.128;11.602;2023-04-16T14:02:28;0.73;;;0.73;;
990;SDS011;484;48.128;11.602;2023-04-16T14:05:13;1.27;;;1.00;;
990;SDS011;484;48.128;11.602;2023-04-16T14:08:00;0.60;;;0.60;;
990;SDS011;484;48.128;11.602;2023-04-16T14:10:45;0.70;;;0.70;;
990;SDS011;484;48.128;11.602;2023-04-16T14:13:31;0.60;;;0.60;;
990;SDS011;484;48.128;11.602;2023-04-16T14:16:17;0.70;;;0.60;;
990;SDS011;484;48.128;11.602;2023-04-16T14:19:03;0.70;;;0.70;;
990;SDS011;484;48.128;11.602;2023-04-16T14:21:48;0.60;;;0.60;;
990;SDS011;484;48.128;11.602;2023-04-16T14:24:35;1.03;;;1.03;;
990;SDS011;484;48.128;11.602;2023-04-16T14:27:21;1.10;;;1.10;;
990;SDS011;484;48.128;11.602;2023-04-16T14:30:06;0.70;;;0.70;;
990;SDS011;484;48.128;11.602;2023-04-16T14:32:52;0.93;;;0.87;;
990;SDS011;484;48.128;11.602;2023-04-16T14:35:37;0.87;;;0.87;;
990;SDS011;484;48.128;11.602;2023-04-16T14:38:23;1.27;;;0.60;;
990;SDS011;484;48.128;11.602;2023-04-16T14:41:11;0.70;;;0.70;;
990;SDS011;484;48.128;11.602;2023-04-16T14:43:57;0.70;;;0.70;;
990;SDS011;484;48.128;11.602;2023-04-16T14:46:43;0.60;;;0.60;;
990;SDS011;484;48.128;11.602;2023-04-16T14:49:29;0.60;;;0.60;;
990;SDS011;484;48.128;11.602;2023-04-16T14:52:14;0.70;;;0.70;;
990;SDS011;484;48.128;11.602;2023-04-16T14:55:00;0.90;;;0.80;;
990;SDS011;484;48.128;11.602;2023-04-16T14:57:47;1.00;;;0.70;;
990;SDS011;484;48.128;11.602;2023-04-16T15:00:33;0.60;;;0.60;;
990;SDS011;484;48.128;11.602;2023-04-16T15:03:18;0.80;;;0.80;;
990;SDS011;484;48.128;11.602;2023-04-16T15:06:04;0.70;;;0.70;;
990;SDS011;484;48.128;11.602;2023-04-16T15:08:49;1.30;;;0.73;;
990;SDS011;484;48.128;11.602;2023-04-16T15:11:36;0.60;;;0.60;;
990;SDS011;484;48.128;11.602;2023-04-16T15:14:23;0.60;;;0.60;;
990;SDS011;484;48.128;11.602;2023-04-16T15:17:08;1.23;;;1.13;;
990;SDS011;484;48.128;11.602;2023-04-16T15:19:54;0.70;;;0.70;;
990;SDS011;484;48.128;11.602;2023-04-16T15:22:39;1.03;;;0.70;;
990;SDS011;484;48.128;11.602;2023-04-16T15:25:24;1.27;;;0.77;;
990;SDS011;484;48.128;11.602;2023-04-16T15:28:10;1.23;;;0.90;;
990;SDS011;484;48.128;11.602;2023-04-16T15:30:56;0.60;;;0.60;;
990;SDS011;484;48.128;11.602;2023-04-16T15:33:42;0.70;;;0.70;;
990;SDS011;484;48.128;11.602;2023-04-16T15:36:28;1.03;;;0.93;;
990;SDS011;484;48.128;11.602;2023-04-16T15:39:13;1.47;;;1.13;;
990;SDS011;484;48.128;11.602;2023-04-16T15:42:00;1.57;;;1.47;;
990;SDS011;484;48.128;11.602;2023-04-16T15:44:48;0.60;;;0.60;;
990;SDS011;484;48.128;11.602;2023-04-16T15:47:36;0.80;;;0.80;;
990;SDS011;484;48.128;11.602;2023-04-16T15:50:21;0.80;;;0.80;;
990;SDS011;484;48.128;11.602;2023-04-16T15:53:06;0.60;;;0.60;;
990;SDS011;484;48.128;11.602;2023-04-16T15:55:52;0.73;;;0.73;;
990;SDS011;484;48.128;11.602;2023-04-16T15:58:37;0.90;;;0.80;;
990;SDS011;484;48.128;11.602;2023-04-16T16:01:22;1.03;;;0.93;;
990;SDS011;484;48.128;11.602;2023-04-16T16:04:09;0.60;;;0.60;;
990;SDS011;484;48.128;11.602;2023-04-16T16:06:54;0.90;;;0.90;;
990;SDS011;484;48.128;11.602;2023-04-16T16:09:40;0.93;;;0.83;;
990;SDS011;484;48.128;11.602;2023-04-16T16:12:25;1.50;;;1.40;;
990;SDS011;484;48.128;11.602;2023-04-16T16:15:11;0.87;;;0.80;;
990;SDS011;484;48.128;11.602;2023-04-16T16:17:56;0.70;;;0.70;;
990;SDS011;484;48.128;11.602;2023-04-16T16:20:43;1.80;;;1.70;;
990;SDS011;484;48.128;11.602;2023-04-16T16:23:28;0.70;;;0.70;;
990;SDS011;484;48.128;11.602;2023-04-16T16:26:14;1.03;;;0.80;;
990;SDS011;484;48.128;11.602;2023-04-16T16:29:00;1.17;;;0.70;;
990;SDS011;484;48.128;11.602;2023-04-16T16:31:45;0.97;;;0.83;;
990;SDS011;484;48.128;11.602;2023-04-16T16:34:30;0.77;;;0.77;;
990;SDS011;484;48.128;11.602;2023-04-16T16:37:18;0.60;;;0.60;;
990;SDS011;484;48.128;11.602;2023-04-16T16:40:04;0.87;;;0.70;;
990;SDS011;484;48.128;11.602;2023-04-16T16:42:50;0.77;;;0.70;;
990;SDS011;484;48.128;11.602;2023-04-16T16:45:38;2.30;;;1.00;;
990;SDS011;484;48.128;11.602;2023-04-16T16:48:24;1.07;;;0.87;;
990;SDS011;484;48.128;11.602;2023-04-16T16:51:09;1.00;;;1.00;;
990;SDS011;484;48.128;11.602;2023-04-16T16:53:56;2.40;;;1.47;;
990;SDS011;484;48.128;11.602;2023-04-16T16:56:41;1.60;;;1.03;;
990;SDS011;484;48.128;11.602;2023-04-16T16:59:27;1.00;;;0.90;;
990;SDS011;484;48.128;11.602;2023-04-16T17:02:12;1.07;;;0.80;;
990;SDS011;484;48.128;11.602;2023-04-16T17:04:57;0.80;;;0.80;;
990;SDS011;484;48.128;11.602;2023-04-16T17:07:43;0.83;;;0.83;;
990;SDS011;484;48.128;11.602;2023-04-16T17:10:30;1.80;;;1.10;;
990;SDS011;484;48.128;11.602;2023-04-16T17:13:15;0.90;;;0.90;;
990;SDS011;484;48.128;11.602;2023-04-16T17:16:02;1.30;;;0.90;;
990;SDS011;484;48.128;11.602;2023-04-16T17:18:47;1.37;;;1.17;;
990;SDS011;484;48.128;11.602;2023-04-16T17:21:43;0.80;;;0.80;;
990;SDS011;484;48.128;11.602;2023-04-16T17:24:33;0.77;;;0.77;;
990;SDS011;484;48.128;11.602;2023-04-16T17:27:20;0.73;;;0.73;;
990;SDS011;484;48.128;11.602;2023-04-16T17:30:06;1.03;;;0.80;;
990;SDS011;484;48.128;11.602;2023-04-16T17:32:52;0.60;;;0.60;;
990;SDS011;484;48.128;11.602;2023-04-16T17:35:38;1.90;;;0.80;;